createdAt,value
2019-05-11T00:00:05.838Z,10.39
2019-05-11T00:02:41.062Z,10.34
2019-05-11T00:05:12.688Z,10.36
2019-05-11T00:19:13.799Z,10.39
2019-05-11T00:21:45.371Z,10.39
2019-05-11T00:24:15.689Z,10.39
2019-05-11T00:26:48.898Z,10.37
2019-05-11T00:29:20.167Z,10.34
2019-05-11T00:31:57.817Z,10.33
2019-05-11T00:43:37.878Z,10.25
2019-05-11T00:46:34.394Z,10.27
2019-05-11T00:49:24.003Z,10.20
2019-05-11T00:51:54.418Z,10.17
2019-05-11T00:54:27.827Z,10.19
2019-05-11T00:57:19.667Z,10.25
2019-05-11T01:00:11.669Z,10.22
2019-05-11T01:03:03.891Z,10.18
2019-05-11T01:05:53.675Z,10.17
2019-05-11T01:08:43.039Z,10.08
2019-05-11T01:11:33.763Z,10.05
2019-05-11T01:14:24.871Z,10.05
2019-05-11T01:17:14.205Z,10.01
2019-05-11T01:20:03.908Z,9.95
2019-05-11T01:22:34.276Z,9.93
2019-05-11T01:25:42.730Z,9.89
2019-05-11T01:28:34.000Z,9.89
2019-05-11T01:31:27.905Z,9.94
2019-05-11T01:37:25.940Z,10.01
2019-05-11T01:40:15.991Z,10.01
2019-05-11T01:42:47.387Z,10.02
2019-05-11T01:45:38.699Z,10.04
2019-05-11T01:48:57.155Z,10.06
2019-05-11T01:51:19.837Z,10.07
2019-05-11T01:54:04.412Z,10.05
2019-05-11T01:56:45.806Z,10.08
2019-05-11T01:59:35.483Z,10.10
2019-05-11T02:02:08.975Z,10.12
2019-05-11T02:04:57.223Z,10.14
2019-05-11T02:07:51.858Z,10.14
2019-05-11T02:10:23.268Z,10.15
2019-05-11T02:13:14.447Z,10.17
2019-05-11T02:16:04.162Z,10.19
2019-05-11T02:18:55.481Z,10.26
2019-05-11T02:21:28.083Z,10.23
2019-05-11T02:26:57.472Z,10.29
2019-05-11T02:29:46.743Z,10.32
2019-05-11T02:32:27.965Z,10.37
2019-05-11T02:34:59.578Z,10.35
2019-05-11T02:37:30.809Z,10.30
2019-05-11T02:40:01.100Z,10.36
2019-05-11T02:42:58.477Z,10.34
2019-05-11T02:45:48.112Z,10.37
2019-05-11T02:48:37.808Z,10.42
2019-05-11T02:51:27.512Z,10.33
2019-05-11T02:54:17.801Z,10.34
2019-05-11T02:56:48.133Z,10.35
2019-05-11T02:59:37.730Z,10.37
2019-05-11T03:02:27.130Z,10.43
2019-05-11T03:05:17.705Z,10.41
2019-05-11T03:08:24.282Z,10.40
2019-05-11T03:11:03.557Z,10.40
2019-05-11T03:13:52.932Z,10.34
2019-05-11T03:16:25.973Z,10.12
2019-05-11T03:19:15.294Z,10.42
2019-05-11T03:22:25.582Z,10.37
2019-05-11T03:25:06.935Z,10.39
2019-05-11T03:27:37.550Z,10.37
2019-05-11T03:30:26.857Z,10.37
2019-05-11T03:33:16.474Z,10.43
2019-05-11T03:36:09.167Z,10.43
2019-05-11T03:38:39.581Z,10.48
2019-05-11T03:41:10.453Z,10.48
2019-05-11T03:44:03.072Z,10.53
2019-05-11T03:46:52.507Z,10.60
2019-05-11T03:49:22.874Z,10.65
2019-05-11T03:51:53.222Z,10.66
2019-05-11T03:54:24.019Z,10.65
2019-05-11T03:56:56.351Z,10.68
2019-05-11T03:59:27.836Z,10.65
2019-05-11T04:02:17.452Z,10.63
2019-05-11T04:05:08.095Z,10.62
2019-05-11T04:07:57.708Z,10.65
2019-05-11T04:10:28.011Z,10.63
2019-05-11T04:13:17.415Z,10.66
2019-05-11T04:16:07.019Z,10.64
2019-05-11T04:18:38.226Z,10.65
2019-05-11T04:21:27.595Z,10.70
2019-05-11T04:23:58.828Z,10.82
2019-05-11T04:26:31.149Z,10.82
2019-05-11T04:29:06.080Z,10.84
2019-05-11T04:31:55.469Z,10.88
2019-05-11T04:34:25.850Z,10.91
2019-05-11T04:36:57.494Z,10.94
2019-05-11T04:39:47.188Z,10.97
2019-05-11T04:42:53.455Z,11.02
2019-05-11T04:45:30.097Z,11.04
2019-05-11T04:48:40.044Z,11.14
2019-05-11T04:51:10.351Z,11.12
2019-05-11T04:53:40.702Z,11.14
2019-05-11T04:56:30.068Z,11.23
2019-05-11T04:59:00.431Z,11.23
2019-05-11T05:01:50.056Z,11.34
2019-05-11T05:04:20.375Z,11.37
2019-05-11T05:06:59.602Z,11.36
2019-05-11T05:09:42.551Z,11.42
2019-05-11T05:12:15.553Z,11.10
2019-05-11T05:14:45.903Z,11.53
2019-05-11T05:17:16.232Z,11.54
2019-05-11T05:19:46.505Z,11.62
2019-05-11T05:22:28.271Z,11.74
2019-05-11T05:25:10.249Z,11.76
2019-05-11T05:27:42.945Z,11.79
2019-05-11T05:30:32.256Z,11.82
2019-05-11T05:36:14.292Z,11.92
2019-05-11T05:38:44.598Z,11.79
2019-05-11T05:41:34.231Z,12.05
2019-05-11T05:47:33.390Z,12.08
2019-05-11T05:50:22.677Z,12.11
2019-05-11T05:53:04.572Z,12.09
2019-05-11T05:55:46.733Z,12.13
2019-05-11T05:58:28.242Z,12.14
2019-05-11T06:01:10.276Z,11.41
2019-05-11T06:04:01.023Z,12.20
2019-05-11T06:06:56.160Z,12.17
2019-05-11T06:09:28.313Z,12.14
2019-05-11T06:11:58.639Z,12.13
2019-05-11T06:14:48.009Z,12.14
2019-05-11T06:17:18.379Z,12.10
2019-05-11T06:20:08.834Z,12.07
2019-05-11T06:22:51.984Z,12.06
2019-05-11T06:25:33.730Z,11.35
2019-05-11T06:28:04.347Z,12.17
2019-05-11T06:30:53.716Z,12.22
2019-05-11T06:33:34.114Z,12.31
2019-05-11T06:36:04.819Z,12.45
2019-05-11T06:41:50.909Z,12.81
2019-05-11T06:44:21.317Z,13.00
2019-05-11T06:47:10.936Z,13.20
2019-05-11T06:50:00.311Z,13.35
2019-05-11T06:52:30.804Z,13.40
2019-05-11T06:55:01.575Z,13.38
2019-05-11T06:57:54.125Z,13.33
2019-05-11T07:00:43.727Z,13.31
2019-05-11T07:03:33.051Z,13.35
2019-05-11T07:08:55.182Z,13.44
2019-05-11T07:11:49.485Z,13.37
2019-05-11T07:14:21.481Z,12.76
2019-05-11T07:45:24.037Z,15.76
2019-05-11T07:47:54.386Z,15.97
2019-05-11T07:50:47.963Z,16.01
2019-05-11T07:53:18.726Z,16.26
2019-05-11T07:56:08.461Z,16.27
2019-05-11T08:01:38.418Z,16.37
2019-05-11T08:07:38.079Z,16.31
2019-05-11T08:10:11.477Z,16.32
2019-05-11T08:12:48.120Z,16.35
2019-05-11T08:15:22.884Z,16.29
2019-05-11T08:21:55.278Z,16.27
2019-05-11T08:25:03.761Z,16.21
2019-05-11T08:31:02.981Z,16.62
2019-05-11T08:33:51.095Z,17.11
2019-05-11T08:36:21.609Z,17.09
2019-05-11T08:38:52.279Z,17.43
2019-05-11T08:41:41.679Z,17.67
2019-05-11T08:44:30.921Z,17.89
2019-05-11T08:47:01.328Z,18.34
2019-05-11T08:49:32.544Z,18.94
2019-05-11T08:52:03.272Z,18.37
2019-05-11T08:54:38.325Z,18.15
2019-05-11T08:57:09.344Z,17.94
2019-05-11T08:59:49.557Z,17.48
2019-05-11T09:02:20.787Z,17.14
2019-05-11T09:05:13.390Z,16.70
2019-05-11T09:10:58.225Z,14.80
2019-05-11T09:13:28.397Z,14.98
2019-05-11T09:15:59.011Z,14.59
2019-05-11T09:18:32.122Z,14.49
2019-05-11T09:21:19.016Z,14.52
2019-05-11T09:23:40.335Z,14.92
2019-05-11T09:26:28.875Z,15.73
2019-05-11T09:28:59.174Z,16.41
2019-05-11T09:31:29.564Z,17.29
2019-05-11T09:34:18.979Z,17.66
2019-05-11T09:37:08.701Z,18.86
2019-05-11T09:39:39.023Z,19.49
2019-05-11T09:42:30.663Z,18.97
2019-05-11T10:09:38.990Z,18.96
2019-05-11T10:12:09.797Z,19.75
2019-05-11T10:14:40.414Z,20.27
2019-05-11T10:17:11.110Z,20.04
2019-05-11T10:25:52.103Z,19.35
2019-05-11T10:28:42.292Z,18.47
2019-05-11T10:31:12.671Z,18.81
2019-05-11T10:34:08.664Z,18.52
2019-05-11T10:37:01.325Z,18.59
2019-05-11T10:39:49.236Z,18.54
2019-05-11T10:42:58.925Z,18.47
2019-05-11T10:45:53.296Z,18.81
2019-05-11T10:48:42.642Z,18.99
2019-05-11T10:51:18.145Z,18.41
2019-05-11T10:56:44.808Z,18.70
2019-05-11T10:59:35.727Z,18.85
2019-05-11T11:02:25.056Z,18.40
2019-05-11T11:04:58.893Z,17.75
2019-05-11T11:07:32.157Z,17.84
2019-05-11T11:10:24.167Z,17.95
2019-05-11T11:12:54.454Z,18.01
2019-05-11T11:15:45.204Z,17.98
2019-05-11T11:18:24.827Z,17.64
2019-05-11T11:21:14.410Z,17.71
2019-05-11T11:23:44.723Z,17.77
2019-05-11T11:26:15.195Z,18.04
2019-05-11T11:28:47.840Z,18.14
2019-05-11T11:31:20.047Z,18.53
2019-05-11T11:34:09.347Z,18.58
2019-05-11T11:36:40.650Z,18.92
2019-05-11T11:39:11.284Z,19.41
2019-05-11T11:42:00.868Z,19.55
2019-05-11T11:44:50.342Z,20.21
2019-05-11T11:47:42.067Z,20.88
2019-05-11T11:50:12.733Z,20.18
2019-05-11T11:53:02.067Z,19.10
2019-05-11T11:55:32.412Z,18.66
2019-05-11T12:01:03.096Z,18.45
2019-05-11T12:03:33.391Z,18.65
2019-05-11T12:06:22.730Z,18.77
2019-05-11T12:09:15.312Z,18.81
2019-05-11T12:12:08.441Z,18.51
2019-05-11T12:14:41.654Z,18.35
2019-05-11T12:17:12.013Z,18.14
2019-05-11T12:19:47.845Z,17.87
2019-05-11T12:22:38.915Z,17.93
2019-05-11T12:25:09.529Z,17.87
2019-05-11T12:27:43.139Z,18.24
2019-05-11T12:30:13.646Z,18.44
2019-05-11T12:33:32.050Z,18.61
2019-05-11T12:36:21.399Z,18.81
2019-05-11T12:38:51.757Z,19.05
2019-05-11T12:41:23.360Z,19.39
2019-05-11T12:44:12.747Z,19.68
2019-05-11T12:47:24.817Z,19.80
2019-05-11T12:53:23.600Z,19.50
2019-05-11T12:56:34.521Z,19.30
2019-05-11T12:59:04.913Z,19.17
2019-05-11T13:01:59.082Z,19.57
2019-05-11T13:04:48.690Z,20.89
2019-05-11T13:07:39.284Z,21.05
2019-05-11T13:10:30.163Z,20.52
2019-05-11T13:13:02.664Z,19.85
2019-05-11T13:15:51.872Z,19.90
2019-05-11T13:18:41.117Z,19.78
2019-05-11T13:21:30.792Z,19.25
2019-05-11T13:24:04.040Z,18.80
2019-05-11T13:26:34.387Z,18.34
2019-05-11T13:29:28.809Z,18.06
2019-05-11T13:32:18.775Z,17.80
2019-05-11T13:38:08.933Z,15.67
2019-05-11T13:41:00.610Z,14.25
2019-05-11T13:43:30.954Z,12.79
2019-05-11T13:46:01.265Z,11.88
2019-05-11T13:48:33.464Z,11.64
2019-05-11T13:51:03.814Z,11.49
2019-05-11T13:53:34.304Z,11.40
2019-05-11T14:21:41.377Z,15.55
2019-05-11T14:24:12.966Z,15.14
2019-05-11T14:30:11.803Z,14.86
2019-05-11T14:32:31.176Z,14.77
2019-05-11T14:35:01.597Z,14.41
2019-05-11T14:37:51.103Z,14.21
2019-05-11T14:40:23.958Z,14.04
2019-05-11T14:43:13.633Z,13.26
2019-05-11T14:46:21.851Z,12.92
2019-05-11T14:49:27.492Z,12.85
2019-05-11T14:52:18.600Z,13.94
2019-05-11T15:15:22.982Z,13.76
2019-05-11T15:18:13.674Z,13.44
2019-05-11T15:20:49.538Z,13.09
2019-05-11T15:23:38.874Z,12.65
2019-05-11T15:26:28.551Z,11.47
2019-05-11T15:29:18.439Z,11.95
2019-05-11T15:32:08.513Z,11.91
2019-05-11T15:35:00.765Z,11.88
2019-05-11T15:37:44.065Z,11.78
2019-05-11T15:40:24.125Z,11.66
2019-05-11T15:42:54.506Z,11.51
2019-05-11T15:45:44.151Z,11.40
2019-05-11T15:48:33.518Z,11.32
2019-05-11T15:51:04.247Z,11.21
2019-05-11T15:53:34.830Z,11.24
2019-05-11T15:56:19.015Z,11.30
2019-05-11T15:58:49.990Z,11.22
2019-05-11T16:01:41.130Z,11.27
2019-05-11T16:04:30.421Z,11.28
2019-05-11T16:07:08.255Z,11.27
2019-05-11T16:09:57.887Z,11.30
2019-05-11T16:12:50.566Z,11.35
2019-05-11T16:15:21.237Z,11.40
2019-05-11T16:18:12.914Z,11.41
2019-05-11T16:20:43.364Z,11.51
2019-05-11T16:23:51.878Z,11.38
2019-05-11T16:26:49.650Z,11.36
2019-05-11T16:32:32.284Z,11.41
2019-05-11T16:37:53.450Z,11.08
2019-05-11T16:40:42.980Z,10.92
2019-05-11T16:43:15.087Z,10.62
2019-05-11T16:45:51.094Z,10.57
2019-05-11T16:48:21.276Z,10.56
2019-05-11T16:51:13.156Z,10.53
2019-05-11T16:54:23.097Z,10.56
2019-05-11T16:56:54.361Z,10.72
2019-05-11T17:00:03.099Z,10.80
2019-05-11T17:02:37.800Z,10.95
2019-05-11T17:05:33.896Z,10.89
2019-05-11T17:08:24.922Z,10.35
2019-05-11T17:10:59.056Z,10.69
2019-05-11T17:13:32.778Z,10.71
2019-05-11T17:16:24.251Z,10.82
2019-05-11T17:19:13.628Z,10.79
2019-05-11T17:24:58.796Z,10.62
2019-05-11T17:27:50.046Z,10.58
2019-05-11T17:30:28.093Z,9.56
2019-05-11T17:33:17.804Z,10.40
2019-05-11T17:36:00.497Z,10.31
2019-05-11T17:38:32.197Z,10.19
2019-05-11T17:44:03.133Z,10.22
2019-05-11T17:46:52.809Z,10.19
2019-05-11T17:50:03.976Z,10.18
2019-05-11T17:53:25.217Z,10.02
2019-05-11T17:56:06.108Z,9.97
2019-05-11T17:58:54.871Z,9.96
2019-05-11T18:01:41.864Z,9.90
2019-05-11T18:04:23.949Z,9.85
2019-05-11T18:07:25.102Z,9.89
2019-05-11T18:09:48.448Z,9.86
2019-05-11T18:12:40.651Z,9.89
2019-05-11T18:15:37.906Z,9.81
2019-05-11T18:18:29.020Z,9.83
2019-05-11T18:20:59.044Z,9.72
2019-05-11T18:23:29.722Z,9.71
2019-05-11T18:26:19.352Z,9.72
2019-05-11T18:29:23.116Z,8.79
2019-05-11T18:31:59.984Z,9.64
2019-05-11T18:35:09.615Z,9.62
2019-05-11T18:37:51.602Z,9.56
2019-05-11T18:40:24.045Z,9.63
2019-05-11T18:42:54.514Z,9.54
2019-05-11T18:45:25.158Z,9.30
2019-05-11T18:47:57.845Z,9.47
2019-05-11T18:50:31.013Z,9.44
2019-05-11T18:53:00.576Z,9.44
2019-05-11T18:55:31.791Z,9.40
2019-05-11T18:58:24.207Z,9.40
2019-05-11T19:03:52.338Z,9.42
2019-05-11T19:06:41.939Z,8.48
2019-05-11T19:09:12.365Z,9.36
2019-05-11T19:12:02.006Z,9.38
2019-05-11T19:14:32.460Z,9.31
2019-05-11T19:17:03.281Z,9.24
2019-05-11T19:19:37.973Z,9.24
2019-05-11T19:22:29.065Z,9.16
2019-05-11T19:25:21.898Z,9.22
2019-05-11T19:28:11.327Z,9.14
2019-05-11T19:30:41.949Z,9.03
2019-05-11T19:33:12.600Z,8.93
2019-05-11T19:36:05.010Z,9.00
2019-05-11T19:38:54.459Z,8.99
2019-05-11T19:41:43.654Z,8.89
2019-05-11T19:44:38.606Z,8.84
2019-05-11T19:47:37.860Z,8.93
2019-05-11T19:50:10.140Z,8.93
2019-05-11T19:53:19.707Z,8.82
2019-05-11T19:59:08.826Z,8.81
2019-05-11T20:02:03.256Z,8.78
2019-05-11T20:04:38.806Z,8.74
2019-05-11T20:07:31.996Z,8.64
2019-05-11T20:10:21.382Z,8.63
2019-05-11T20:13:31.830Z,8.62
2019-05-11T20:19:15.480Z,8.60
2019-05-11T20:22:06.607Z,8.59
2019-05-11T20:24:36.947Z,8.61
2019-05-11T20:27:28.369Z,8.51
2019-05-11T20:30:20.562Z,8.45
2019-05-11T20:33:12.733Z,8.52
2019-05-11T20:36:11.619Z,8.43
2019-05-11T20:39:01.478Z,8.42
2019-05-11T20:41:39.037Z,8.35
2019-05-11T20:44:20.458Z,8.39
2019-05-11T20:47:12.870Z,8.35
2019-05-11T20:50:02.206Z,8.37
2019-05-11T20:52:53.466Z,8.33
2019-05-11T20:58:55.865Z,8.30
2019-05-11T21:01:45.353Z,8.26
2019-05-11T21:04:34.760Z,8.25
2019-05-11T21:07:42.941Z,8.16
2019-05-11T21:10:13.544Z,7.89
2019-05-11T21:12:45.241Z,8.17
2019-05-11T21:15:16.100Z,8.19
2019-05-11T21:17:50.299Z,8.19
2019-05-11T21:20:23.849Z,8.19
2019-05-11T21:23:18.547Z,8.13
2019-05-11T21:26:09.996Z,8.27
2019-05-11T21:28:44.546Z,7.32
2019-05-11T21:31:34.044Z,8.13
2019-05-11T21:34:23.353Z,8.09
2019-05-11T21:36:53.919Z,8.08
2019-05-11T21:39:43.305Z,8.06
2019-05-11T21:45:22.304Z,8.03
2019-05-11T21:51:22.934Z,7.98
2019-05-11T21:53:53.269Z,8.02
2019-05-11T21:56:23.588Z,7.95
2019-05-11T21:59:24.670Z,7.94
2019-05-11T22:01:44.998Z,7.92
2019-05-11T22:04:15.312Z,7.87
2019-05-11T22:07:04.831Z,7.90
2019-05-11T22:09:38.527Z,7.97
2019-05-11T22:12:11.759Z,7.85
2019-05-11T22:15:04.571Z,7.84
2019-05-11T22:17:53.911Z,7.14
2019-05-11T22:20:48.637Z,7.91
2019-05-11T22:22:58.244Z,7.88
2019-05-11T22:25:50.574Z,7.89
2019-05-11T22:28:40.226Z,7.91
2019-05-11T22:31:29.522Z,8.00
2019-05-11T22:34:25.076Z,7.96
2019-05-11T22:36:53.781Z,7.92
2019-05-11T22:39:24.519Z,7.87
2019-05-11T22:42:13.824Z,7.84
2019-05-11T22:44:44.278Z,7.91
2019-05-11T22:47:14.998Z,7.90
2019-05-11T22:49:49.665Z,7.92
2019-05-11T22:52:40.482Z,7.87
2019-05-11T22:58:00.892Z,7.97
2019-05-11T23:00:53.085Z,7.93
2019-05-11T23:03:44.220Z,7.90
2019-05-11T23:09:41.860Z,7.91
2019-05-11T23:12:51.779Z,7.98
2019-05-11T23:15:59.991Z,7.94
2019-05-11T23:18:49.321Z,7.89
2019-05-11T23:21:38.986Z,7.87
2019-05-11T23:24:29.730Z,7.88
2019-05-11T23:27:00.231Z,7.90
2019-05-11T23:29:47.730Z,7.92
2019-05-11T23:32:23.892Z,7.89
2019-05-11T23:35:13.622Z,7.87
2019-05-11T23:37:51.716Z,7.88
2019-05-11T23:40:41.049Z,7.91
2019-05-11T23:43:30.423Z,7.92
2019-05-11T23:46:19.814Z,7.95
2019-05-11T23:49:09.173Z,7.88
2019-05-11T23:51:39.769Z,7.89
2019-05-11T23:54:29.104Z,7.96
2019-05-11T23:57:38.700Z,7.87
